createdAt,value
2022-09-03T00:01:01.619Z,97124.00
2022-09-03T00:03:32.651Z,97129.25
2022-09-03T00:06:07.759Z,97130.44
2022-09-03T00:08:39.025Z,97123.91
2022-09-03T00:11:13.483Z,97120.53
2022-09-03T00:13:44.367Z,97122.03
2022-09-03T00:16:14.393Z,97113.69
2022-09-03T00:18:44.566Z,97107.09
2022-09-03T00:21:13.629Z,97117.16
2022-09-03T00:23:42.611Z,97104.38
2022-09-03T00:26:19.338Z,97122.38
2022-09-03T00:28:51.564Z,97109.03
2022-09-03T00:31:22.139Z,97112.66
2022-09-03T00:33:50.248Z,97113.94
2022-09-03T00:36:19.461Z,97112.00
2022-09-03T00:38:47.815Z,97111.16
2022-09-03T00:41:23.031Z,97110.56
2022-09-03T00:44:02.392Z,97117.13
2022-09-03T00:46:33.455Z,97112.25
2022-09-03T00:49:17.764Z,97114.28
2022-09-03T00:51:50.011Z,97114.28
2022-09-03T00:54:21.126Z,97113.34
2022-09-03T00:56:51.959Z,97118.75
2022-09-03T00:59:27.925Z,97115.22
2022-09-03T01:02:06.201Z,97111.38
2022-09-03T01:04:40.298Z,97113.72
2022-09-03T01:07:12.244Z,97109.28
2022-09-03T01:09:49.138Z,97111.91
2022-09-03T01:12:20.769Z,97113.78
2022-09-03T01:14:59.384Z,97106.81
2022-09-03T01:17:34.464Z,97110.72
2022-09-03T01:20:20.817Z,97114.50
2022-09-03T01:23:23.233Z,97108.34
2022-09-03T01:25:54.215Z,97111.69
2022-09-03T01:28:32.910Z,97116.38
2022-09-03T01:31:07.107Z,97116.91
2022-09-03T01:33:38.358Z,97114.50
2022-09-03T01:36:10.557Z,97113.84
2022-09-03T01:38:40.765Z,97108.81
2022-09-03T01:41:30.320Z,97108.44
2022-09-03T01:44:04.170Z,97104.47
2022-09-03T01:46:34.493Z,97108.66
2022-09-03T01:49:04.936Z,97102.06
2022-09-03T01:51:33.242Z,97103.63
2022-09-03T01:54:27.988Z,97103.09
2022-09-03T01:57:35.165Z,97102.91
2022-09-03T02:00:07.932Z,97102.63
2022-09-03T02:02:37.090Z,97094.31
2022-09-03T02:05:09.378Z,97098.22
2022-09-03T02:07:38.814Z,97101.94
2022-09-03T02:10:08.151Z,97099.25
2022-09-03T02:12:38.147Z,97095.34
2022-09-03T02:15:11.077Z,97100.38
2022-09-03T02:17:38.945Z,97100.75
2022-09-03T02:20:10.235Z,97098.69
2022-09-03T02:22:38.138Z,97099.00
2022-09-03T02:25:06.580Z,97100.78
2022-09-03T02:27:34.441Z,97102.06
2022-09-03T02:30:02.241Z,97097.63
2022-09-03T02:32:31.785Z,97099.13
2022-09-03T02:35:00.241Z,97094.84
2022-09-03T02:37:28.135Z,97096.91
2022-09-03T02:39:56.095Z,97092.31
2022-09-03T02:42:24.472Z,97091.13
2022-09-03T02:44:53.860Z,97099.13
2022-09-03T02:47:22.117Z,97097.06
2022-09-03T02:49:51.424Z,97094.00
2022-09-03T02:52:19.528Z,97094.19
2022-09-03T02:54:47.314Z,97094.50
2022-09-03T02:57:16.565Z,97094.19
2022-09-03T02:59:50.911Z,97096.91
2022-09-03T03:02:19.037Z,97101.09
2022-09-03T03:04:46.842Z,97098.13
2022-09-03T03:07:16.196Z,97090.53
2022-09-03T03:09:44.432Z,97095.41
2022-09-03T03:12:12.312Z,97093.72
2022-09-03T03:14:40.243Z,97095.38
2022-09-03T03:17:08.170Z,97090.06
2022-09-03T03:19:36.113Z,97094.09
2022-09-03T03:22:03.948Z,97090.91
2022-09-03T03:24:33.347Z,97088.53
2022-09-03T03:27:01.418Z,97085.50
2022-09-03T03:29:29.878Z,97087.06
2022-09-03T03:31:57.794Z,97081.59
2022-09-03T03:34:25.956Z,97080.75
2022-09-03T03:36:53.751Z,97074.56
2022-09-03T03:39:21.609Z,97084.72
2022-09-03T03:41:52.498Z,97075.09
2022-09-03T03:44:20.728Z,97079.84
2022-09-03T03:46:48.510Z,97070.91
2022-09-03T03:49:16.605Z,97069.50
2022-09-03T03:51:44.402Z,97068.81
2022-09-03T03:54:12.174Z,97072.44
2022-09-03T03:56:46.820Z,97075.63
2022-09-03T03:59:25.037Z,97072.59
2022-09-03T04:01:52.930Z,97069.56
2022-09-03T04:04:20.990Z,97068.72
2022-09-03T04:06:48.781Z,97063.94
2022-09-03T04:09:16.680Z,97058.75
2022-09-03T04:11:44.563Z,97062.13
2022-09-03T04:14:12.359Z,97066.38
2022-09-03T04:16:41.646Z,97057.56
2022-09-03T04:19:09.816Z,97051.66
2022-09-03T04:21:37.758Z,97058.75
2022-09-03T04:24:05.903Z,97053.34
2022-09-03T04:26:34.070Z,97052.16
2022-09-03T04:29:02.392Z,97054.91
2022-09-03T04:31:30.150Z,97042.25
2022-09-03T04:33:59.899Z,97042.59
2022-09-03T04:36:28.428Z,97053.41
2022-09-03T04:38:56.763Z,97044.44
2022-09-03T04:41:25.867Z,97048.25
2022-09-03T04:43:53.791Z,97043.59
2022-09-03T04:46:21.817Z,97042.75
2022-09-03T04:48:51.235Z,97045.28
2022-09-03T04:51:21.408Z,97046.81
2022-09-03T04:53:50.041Z,97049.63
2022-09-03T04:56:18.888Z,97047.03
2022-09-03T04:58:46.757Z,97050.34
2022-09-03T05:01:19.416Z,97055.59
2022-09-03T05:03:47.613Z,97057.97
2022-09-03T05:06:17.213Z,97053.66
2022-09-03T05:08:49.149Z,97052.63
2022-09-03T05:11:18.404Z,97058.41
2022-09-03T05:13:48.518Z,97061.41
2022-09-03T05:16:16.641Z,97064.28
2022-09-03T05:18:45.198Z,97061.53
2022-09-03T05:21:13.690Z,97068.38
2022-09-03T05:23:43.072Z,97068.81
2022-09-03T05:26:13.520Z,97060.09
2022-09-03T05:28:41.946Z,97067.19
2022-09-03T05:31:10.632Z,97069.78
2022-09-03T05:33:39.219Z,97066.84
2022-09-03T05:36:08.036Z,97075.69
2022-09-03T05:38:35.962Z,97072.59
2022-09-03T05:41:05.065Z,97067.41
2022-09-03T05:43:34.532Z,97064.66
2022-09-03T05:46:03.341Z,97059.25
2022-09-03T05:48:31.531Z,97048.81
2022-09-03T05:51:02.513Z,97060.06
2022-09-03T05:53:30.592Z,97059.97
2022-09-03T05:55:58.928Z,97061.06
2022-09-03T05:58:26.927Z,97056.91
2022-09-03T06:00:56.177Z,97058.88
2022-09-03T06:03:24.417Z,97056.75
2022-09-03T06:05:53.010Z,97058.91
2022-09-03T06:08:21.084Z,97058.06
2022-09-03T06:10:48.955Z,97064.13
2022-09-03T06:13:16.737Z,97059.56
2022-09-03T06:15:45.106Z,97059.66
2022-09-03T06:18:14.617Z,97057.75
2022-09-03T06:20:42.692Z,97062.97
2022-09-03T06:23:10.482Z,97064.13
2022-09-03T06:25:38.371Z,97068.88
2022-09-03T06:28:08.984Z,97066.91
2022-09-03T06:30:37.422Z,97065.34
2022-09-03T06:33:05.547Z,97065.56
2022-09-03T06:35:35.842Z,97066.31
2022-09-03T06:38:12.452Z,97058.94
2022-09-03T06:40:40.283Z,97064.34
2022-09-03T06:43:08.404Z,97068.28
2022-09-03T06:45:36.342Z,97062.91
2022-09-03T06:48:04.820Z,97069.44
2022-09-03T06:50:34.782Z,97069.50
2022-09-03T06:53:06.223Z,97068.91
2022-09-03T06:55:42.765Z,97069.53
2022-09-03T06:58:11.588Z,97065.22
2022-09-03T07:00:39.865Z,97065.81
2022-09-03T07:03:08.142Z,97060.09
2022-09-03T07:05:37.588Z,97069.63
2022-09-03T07:08:05.554Z,97062.97
2022-09-03T07:10:35.011Z,97068.31
2022-09-03T07:13:02.809Z,97066.72
2022-09-03T07:15:30.753Z,97066.34
2022-09-03T07:17:59.310Z,97071.38
2022-09-03T07:20:28.848Z,97063.50
2022-09-03T07:22:58.713Z,97065.25
2022-09-03T07:25:27.304Z,97062.59
2022-09-03T07:27:55.166Z,97062.41
2022-09-03T07:30:27.972Z,97068.00
2022-09-03T07:32:56.338Z,97072.22
2022-09-03T07:35:25.820Z,97067.59
2022-09-03T07:37:55.155Z,97070.63
2022-09-03T07:40:24.368Z,97061.84
2022-09-03T07:43:40.693Z,97062.59
2022-09-03T07:46:25.267Z,97070.75
2022-09-03T07:48:53.591Z,97071.81
2022-09-03T07:51:22.587Z,97064.34
2022-09-03T07:53:50.430Z,97071.91
2022-09-03T07:56:19.626Z,97063.56
2022-09-03T07:58:48.520Z,97069.72
2022-09-03T08:01:17.194Z,97068.81
2022-09-03T08:03:45.752Z,97072.03
2022-09-03T08:06:14.612Z,97071.94
2022-09-03T08:08:42.503Z,97070.59
2022-09-03T08:11:11.174Z,97070.97
2022-09-03T08:13:41.718Z,97077.75
2022-09-03T08:16:09.719Z,97086.38
2022-09-03T08:18:41.067Z,97082.28
2022-09-03T08:21:16.677Z,97087.41
2022-09-03T08:23:45.792Z,97085.94
2022-09-03T08:26:13.832Z,97077.19
2022-09-03T08:28:43.428Z,97086.78
2022-09-03T08:31:12.499Z,97078.41
2022-09-03T08:33:42.597Z,97087.63
2022-09-03T08:36:12.822Z,97084.91
2022-09-03T08:38:40.968Z,97085.31
2022-09-03T08:41:10.835Z,97079.63
2022-09-03T08:44:03.489Z,97082.25
2022-09-03T08:46:35.763Z,97081.41
2022-09-03T08:49:08.738Z,97080.22
2022-09-03T08:51:43.453Z,97088.38
2022-09-03T08:54:14.845Z,97089.75
2022-09-03T08:56:42.728Z,97088.50
2022-09-03T08:59:12.263Z,97092.50
2022-09-03T09:01:47.809Z,97089.91
2022-09-03T09:04:22.839Z,97089.13
2022-09-03T09:06:52.312Z,97093.16
2022-09-03T09:09:26.722Z,97092.47
2022-09-03T09:12:01.124Z,97076.75
2022-09-03T09:14:35.727Z,97085.31
2022-09-03T09:17:09.376Z,97084.34
2022-09-03T09:19:41.658Z,97084.81
2022-09-03T09:22:11.195Z,97074.56
2022-09-03T09:24:41.451Z,97089.97
2022-09-03T09:27:20.399Z,97077.84
2022-09-03T09:29:50.956Z,97086.41
2022-09-03T09:32:21.682Z,97079.13
2022-09-03T09:34:52.291Z,97073.28
2022-09-03T09:37:21.036Z,97067.47
2022-09-03T09:39:58.967Z,97062.88
2022-09-03T09:42:27.684Z,97070.88
2022-09-03T09:45:00.330Z,97063.75
2022-09-03T09:51:47.848Z,97075.88
2022-09-03T09:54:18.660Z,97065.81
2022-09-03T09:56:47.052Z,97060.72
2022-09-03T09:59:15.488Z,97071.25
2022-09-03T10:01:45.608Z,97069.53
2022-09-03T10:04:14.995Z,97067.41
2022-09-03T10:06:58.120Z,97075.13
2022-09-03T10:09:31.608Z,97071.78
2022-09-03T10:12:06.334Z,97067.00
2022-09-03T10:14:42.723Z,97079.25
2022-09-03T10:17:18.720Z,97073.16
2022-09-03T10:20:13.698Z,97084.28
2022-09-03T10:22:56.545Z,97084.28
2022-09-03T10:25:26.465Z,97079.63
2022-09-03T10:27:55.489Z,97096.00
2022-09-03T10:30:24.313Z,97088.88
2022-09-03T10:32:59.880Z,97096.84
2022-09-03T10:35:32.929Z,97087.41
2022-09-03T10:38:08.245Z,97098.94
2022-09-03T10:40:39.227Z,97096.84
2022-09-03T10:43:32.596Z,97097.69
2022-09-03T10:46:06.387Z,97090.78
2022-09-03T10:48:48.294Z,97100.19
2022-09-03T10:51:18.664Z,97092.63
2022-09-03T10:53:57.347Z,97091.00
2022-09-03T10:56:28.581Z,97092.84
2022-09-03T10:59:03.042Z,97096.84
2022-09-03T11:01:36.042Z,97100.19
2022-09-03T11:04:17.480Z,97100.00
2022-09-03T11:06:51.422Z,97100.84
2022-09-03T11:09:22.118Z,97106.69
2022-09-03T11:11:53.752Z,97098.53
2022-09-03T11:14:26.724Z,97099.38
2022-09-03T11:16:56.332Z,97102.03
2022-09-03T11:19:32.124Z,97097.69
2022-09-03T11:22:03.869Z,97096.81
2022-09-03T11:24:39.252Z,97096.81
2022-09-03T11:27:17.896Z,97101.03
2022-09-03T11:29:48.245Z,97100.78
2022-09-03T11:32:17.941Z,97092.47
2022-09-03T11:34:48.466Z,97084.28
2022-09-03T11:37:21.263Z,97092.31
2022-09-03T11:40:00.296Z,97090.56
2022-09-03T11:42:30.699Z,97091.50
2022-09-03T11:45:01.601Z,97086.81
2022-09-03T11:48:07.954Z,97086.06
2022-09-03T11:51:11.663Z,97084.06
2022-09-03T11:53:39.929Z,97082.13
2022-09-03T11:56:18.967Z,97089.06
2022-09-03T11:58:47.658Z,97088.56
2022-09-03T12:01:18.195Z,97090.03
2022-09-03T12:03:47.072Z,97081.69
2022-09-03T12:06:29.780Z,97086.59
2022-09-03T12:09:07.985Z,97086.53
2022-09-03T12:11:42.168Z,97081.81
2022-09-03T12:14:14.180Z,97084.41
2022-09-03T12:17:12.483Z,97087.13
2022-09-03T12:19:42.399Z,97079.03
2022-09-03T12:22:15.775Z,97081.50
2022-09-03T12:24:44.539Z,97076.06
2022-09-03T12:27:14.706Z,97078.06
2022-09-03T12:29:59.996Z,97086.31
2022-09-03T12:32:39.212Z,97081.94
2022-09-03T12:35:57.750Z,97083.28
2022-09-03T12:38:05.931Z,97078.56
2022-09-03T12:40:35.648Z,97077.31
2022-09-03T12:43:49.880Z,97075.94
2022-09-03T12:46:17.869Z,97069.50
2022-09-03T12:51:54.277Z,97067.44
2022-09-03T12:54:26.355Z,97077.38
2022-09-03T12:56:57.557Z,97073.38
2022-09-03T12:59:25.744Z,97070.44
2022-09-03T13:01:54.655Z,97065.06
2022-09-03T13:04:23.276Z,97060.03
2022-09-03T13:06:52.393Z,97063.16
2022-09-03T13:09:21.564Z,97057.38
2022-09-03T13:11:52.504Z,97048.03
2022-09-03T13:14:20.853Z,97055.38
2022-09-03T13:17:06.761Z,97057.56
2022-09-03T13:19:40.943Z,97057.84
2022-09-03T13:22:14.362Z,97051.38
2022-09-03T13:24:59.512Z,97032.03
2022-09-03T13:27:32.493Z,97038.94
2022-09-03T13:30:09.291Z,97035.31
2022-09-03T13:32:47.689Z,97032.88
2022-09-03T13:35:26.681Z,97032.09
2022-09-03T13:37:58.222Z,97030.13
2022-09-03T13:40:29.433Z,97025.94
2022-09-03T13:43:07.760Z,97031.00
2022-09-03T13:45:41.047Z,97026.22
2022-09-03T13:48:30.546Z,97038.34
2022-09-03T13:51:04.024Z,97030.16
2022-09-03T13:53:38.422Z,97026.13
2022-09-03T13:56:10.108Z,97031.84
2022-09-03T13:58:45.025Z,97033.31
2022-09-03T14:01:18.606Z,97040.81
2022-09-03T14:03:49.164Z,97042.47
2022-09-03T14:06:35.560Z,97036.94
2022-09-03T14:09:07.961Z,97038.88
2022-09-03T14:11:39.470Z,97032.38
2022-09-03T14:14:17.814Z,97031.28
2022-09-03T14:16:50.145Z,97038.56
2022-09-03T14:19:22.551Z,97040.00
2022-09-03T14:21:53.461Z,97028.84
2022-09-03T14:24:23.324Z,97026.50
2022-09-03T14:26:52.399Z,97026.44
2022-09-03T14:29:24.853Z,97034.72
2022-09-03T14:32:13.691Z,97043.25
2022-09-03T14:34:50.149Z,97039.16
2022-09-03T14:37:25.309Z,97031.84
2022-09-03T14:39:54.250Z,97030.09
2022-09-03T14:42:40.874Z,97027.25
2022-09-03T14:45:17.643Z,97034.50
2022-09-03T14:47:56.831Z,97035.84
2022-09-03T14:50:38.556Z,97039.50
2022-09-03T14:53:27.436Z,97038.06
2022-09-03T14:56:13.946Z,97034.38
2022-09-03T14:58:49.730Z,97033.91
2022-09-03T15:01:20.878Z,97037.34
2022-09-03T15:04:23.175Z,97040.25
2022-09-03T15:06:59.062Z,97045.56
2022-09-03T15:09:33.118Z,97047.63
2022-09-03T15:12:04.289Z,97052.59
2022-09-03T15:14:37.162Z,97051.25
2022-09-03T15:17:18.358Z,97047.63
2022-09-03T15:20:08.867Z,97054.72
2022-09-03T15:22:50.109Z,97053.63
2022-09-03T15:25:22.019Z,97051.97
2022-09-03T15:28:04.030Z,97053.19
2022-09-03T15:30:36.426Z,97054.09
2022-09-03T15:33:12.793Z,97054.31
2022-09-03T15:35:47.584Z,97051.00
2022-09-03T15:38:21.873Z,97055.31
2022-09-03T15:40:51.589Z,97054.69
2022-09-03T15:43:22.047Z,97050.63
2022-09-03T15:45:57.618Z,97060.03
2022-09-03T15:48:33.737Z,97054.06
2022-09-03T15:51:10.081Z,97051.28
2022-09-03T15:53:39.055Z,97056.75
2022-09-03T15:56:17.382Z,97057.59
2022-09-03T15:58:49.481Z,97064.81
2022-09-03T16:01:25.020Z,97066.50
2022-09-03T16:04:01.254Z,97068.16
2022-09-03T16:06:38.432Z,97070.00
2022-09-03T16:09:19.100Z,97073.09
2022-09-03T16:11:55.428Z,97074.84
2022-09-03T16:14:25.526Z,97071.25
2022-09-03T16:16:58.326Z,97067.16
2022-09-03T16:19:35.858Z,97069.44
2022-09-03T16:22:09.953Z,97073.00
2022-09-03T16:24:47.399Z,97074.06
2022-09-03T16:27:20.480Z,97076.44
2022-09-03T16:30:04.009Z,97076.69
2022-09-03T16:32:56.589Z,97078.38
2022-09-03T16:35:31.506Z,97069.50
2022-09-03T16:38:06.846Z,97079.84
2022-09-03T16:40:38.741Z,97074.63
2022-09-03T16:43:29.934Z,97082.50
2022-09-03T16:46:05.693Z,97081.84
2022-09-03T16:48:35.692Z,97082.72
2022-09-03T16:51:11.598Z,97086.16
2022-09-03T16:54:04.090Z,97086.59
2022-09-03T16:57:02.926Z,97089.13
2022-09-03T16:59:40.770Z,97079.84
2022-09-03T17:02:39.488Z,97087.59
2022-09-03T17:05:38.105Z,97083.81
2022-09-03T17:08:18.862Z,97085.34
2022-09-03T17:10:47.916Z,97089.06
2022-09-03T17:13:36.953Z,97083.34
2022-09-03T17:16:10.796Z,97091.00
2022-09-03T17:18:56.931Z,97090.53
2022-09-03T17:21:46.012Z,97098.25
2022-09-03T17:24:32.889Z,97100.53
2022-09-03T17:27:10.057Z,97100.03
2022-09-03T17:29:48.519Z,97097.31
2022-09-03T17:32:24.188Z,97104.91
2022-09-03T17:35:00.187Z,97101.78
2022-09-03T17:37:32.547Z,97100.47
2022-09-03T17:40:08.903Z,97101.41
2022-09-03T17:42:44.607Z,97108.34
2022-09-03T17:45:15.903Z,97111.03
2022-09-03T17:47:53.864Z,97113.31
2022-09-03T17:50:25.024Z,97120.69
2022-09-03T17:52:55.662Z,97128.50
2022-09-03T17:55:31.001Z,97130.69
2022-09-03T17:58:01.196Z,97136.38
2022-09-03T18:00:35.102Z,97142.50
2022-09-03T18:03:06.142Z,97154.50
2022-09-03T18:05:35.678Z,97159.31
2022-09-03T18:08:06.403Z,97165.38
2022-09-03T18:10:42.494Z,97168.28
2022-09-03T18:13:13.911Z,97168.00
2022-09-03T18:15:53.634Z,97179.69
2022-09-03T18:18:28.800Z,97186.78
2022-09-03T18:21:27.809Z,97188.19
2022-09-03T18:24:21.318Z,97198.63
2022-09-03T18:27:12.873Z,97196.97
2022-09-03T18:30:03.105Z,97200.75
2022-09-03T18:32:48.732Z,97203.06
2022-09-03T18:35:34.195Z,97220.13
2022-09-03T18:38:20.740Z,97226.25
2022-09-03T18:41:09.721Z,97216.38
2022-09-03T18:43:58.882Z,97217.22
2022-09-03T18:49:54.577Z,97214.13
2022-09-03T18:52:42.502Z,97223.66
2022-09-03T18:55:32.655Z,97217.75
2022-09-03T18:58:25.390Z,97217.72
2022-09-03T19:01:16.365Z,97219.84
2022-09-03T19:04:07.588Z,97227.75
2022-09-03T19:06:55.823Z,97225.28
2022-09-03T19:09:55.249Z,97216.72
2022-09-03T19:12:50.052Z,97222.31
2022-09-03T19:15:46.094Z,97224.72
2022-09-03T19:18:39.209Z,97226.72
2022-09-03T19:21:29.388Z,97232.53
2022-09-03T19:24:16.634Z,97236.03
2022-09-03T19:27:04.013Z,97240.16
2022-09-03T19:29:58.123Z,97238.63
2022-09-03T19:32:46.277Z,97238.13
2022-09-03T19:35:35.312Z,97240.75
2022-09-03T19:38:26.726Z,97244.25
2022-09-03T19:41:18.917Z,97246.66
2022-09-03T19:44:11.552Z,97259.31
2022-09-03T19:47:00.513Z,97252.94
2022-09-03T19:49:49.954Z,97256.59
2022-09-03T19:52:41.031Z,97265.16
2022-09-03T19:55:26.355Z,97261.53
2022-09-03T19:58:41.499Z,97263.75
2022-09-03T20:01:23.110Z,97262.75
2022-09-03T20:04:08.703Z,97275.06
2022-09-03T20:06:54.197Z,97279.66
2022-09-03T20:09:41.820Z,97271.81
2022-09-03T20:12:10.265Z,97282.84
2022-09-03T20:14:38.679Z,97279.22
2022-09-03T20:17:15.699Z,97287.97
2022-09-03T20:19:52.322Z,97284.34
2022-09-03T20:22:22.963Z,97285.75
2022-09-03T20:25:00.827Z,97283.28
2022-09-03T20:27:33.260Z,97285.44
2022-09-03T20:30:03.389Z,97291.53
2022-09-03T20:32:44.106Z,97286.78
2022-09-03T20:35:16.264Z,97289.13
2022-09-03T20:37:48.296Z,97283.31
2022-09-03T20:40:22.193Z,97300.16
2022-09-03T20:43:23.521Z,97296.25
2022-09-03T20:46:00.329Z,97295.78
2022-09-03T20:48:29.027Z,97294.13
2022-09-03T20:51:00.066Z,97297.00
2022-09-03T20:53:52.706Z,97304.53
2022-09-03T20:56:26.463Z,97300.75
2022-09-03T20:58:57.957Z,97299.19
2022-09-03T21:01:30.848Z,97305.81
2022-09-03T21:04:04.674Z,97301.88
2022-09-03T21:06:34.718Z,97302.94
2022-09-03T21:09:11.570Z,97305.75
2022-09-03T21:11:46.127Z,97312.00
2022-09-03T21:14:58.179Z,97312.47
2022-09-03T21:17:39.051Z,97306.09
2022-09-03T21:20:16.231Z,97309.59
2022-09-03T21:22:52.783Z,97304.72
2022-09-03T21:25:22.517Z,97313.25
2022-09-03T21:27:54.192Z,97310.31
2022-09-03T21:30:22.040Z,97306.94
2022-09-03T21:32:51.775Z,97304.88
2022-09-03T21:35:22.324Z,97311.25
2022-09-03T21:37:54.076Z,97307.91
2022-09-03T21:40:24.406Z,97315.38
2022-09-03T21:42:59.782Z,97305.56
2022-09-03T21:45:30.336Z,97310.81
2022-09-03T21:48:01.255Z,97312.03
2022-09-03T21:50:31.871Z,97313.63
2022-09-03T21:53:01.269Z,97306.56
2022-09-03T21:55:32.228Z,97314.47
2022-09-03T21:58:21.976Z,97316.00
2022-09-03T22:00:49.880Z,97318.88
2022-09-03T22:03:17.708Z,97318.53
2022-09-03T22:05:49.493Z,97322.41
2022-09-03T22:08:21.027Z,97319.06
2022-09-03T22:10:55.487Z,97321.69
2022-09-03T22:13:29.585Z,97318.97
2022-09-03T22:16:01.549Z,97315.22
2022-09-03T22:18:30.402Z,97315.69
2022-09-03T22:21:03.088Z,97325.41
2022-09-03T22:23:43.624Z,97316.97
2022-09-03T22:26:22.880Z,97312.97
2022-09-03T22:29:02.334Z,97317.81
2022-09-03T22:31:40.337Z,97323.13
2022-09-03T22:34:17.441Z,97320.34
2022-09-03T22:36:47.198Z,97320.59
2022-09-03T22:39:18.907Z,97319.31
2022-09-03T22:42:00.365Z,97316.63
2022-09-03T22:44:39.547Z,97318.97
2022-09-03T22:47:10.919Z,97326.25
2022-09-03T22:49:42.493Z,97333.53
2022-09-03T22:52:17.671Z,97340.03
2022-09-03T22:54:52.544Z,97332.44
2022-09-03T22:57:20.338Z,97338.09
2022-09-03T22:59:53.071Z,97336.28
2022-09-03T23:02:22.416Z,97339.19
2022-09-03T23:04:52.485Z,97340.06
2022-09-03T23:07:23.563Z,97340.22
2022-09-03T23:09:54.251Z,97340.38
2022-09-03T23:12:24.540Z,97344.63
2022-09-03T23:14:56.500Z,97343.88
2022-09-03T23:20:00.010Z,97349.28
2022-09-03T23:22:30.972Z,97349.63
2022-09-03T23:25:01.920Z,97348.84
2022-09-03T23:27:32.721Z,97351.22
2022-09-03T23:30:02.184Z,97353.16
2022-09-03T23:32:33.085Z,97355.09
2022-09-03T23:35:01.340Z,97349.78
2022-09-03T23:37:38.518Z,97351.22
2022-09-03T23:40:25.844Z,97345.28
2022-09-03T23:43:24.936Z,97360.69
2022-09-03T23:45:56.771Z,97357.06
2022-09-03T23:48:30.020Z,97360.34
2022-09-03T23:51:01.850Z,97354.59
2022-09-03T23:53:35.369Z,97366.00
2022-09-03T23:56:11.750Z,97362.56
2022-09-03T23:58:46.725Z,97362.56
